Latest Weather Observations for Tasman Island

IDT60801

Issued at 10:35 pm EST Saturday 19 April 2014 (issued every 30 minutes, with the page automatically refreshed every 10 minutes)

About weather observations | Map of weather stations | Latest weather observations for TAS | Other Formats
Station Details ID: 094155 Name: TASMAN ISLAND Lat: -43.24 Lon: 148.00 Height: 240.0 m
Data from the previous 72 hours. | See also: Recent months at Tasman Island
Date/Time
EST
Temp
°C
App
Temp
°C
Dew
Point
Rel
Hum
%
Delta-T
°C
Wind Press
QNH
hPa
Press
MSL
hPa
Rain
since 9 am
mm
Dir
 
Spd
km/h
Gust
km/h
Spd
kts
Gust
kts
19/10:30pm 9.3 4.9 4.5 72 2.2 NW 17 35 9 19 1013.8 - 0.2
19/10:00pm 9.4 7.0 4.4 71 2.2 W 6 19 3 10 1014.1 1014.1 0.2
19/09:30pm 9.7 7.0 2.8 62 3.0 NNE 6 17 3 9 1014.2 - 0.2
19/09:00pm 10.0 7.4 4.0 66 2.7 N 7 20 4 11 1014.3 1014.3 0.2
19/08:30pm 9.8 6.7 3.8 66 2.7 W 9 24 5 13 1014.1 - 0.2
19/08:00pm 9.8 7.5 5.6 75 1.9 NNW 7 19 4 10 1014.1 1014.1 0.2
19/07:00pm 9.7 5.2 6.1 78 1.7 SW 19 39 10 21 1014.3 1014.3 0.2
19/06:30pm 9.7 6.0 6.2 79 1.6 WSW 15 35 8 19 1014.2 - 0.2
19/06:00pm 9.3 3.5 6.2 81 1.4 SSW 26 46 14 25 1013.9 1013.9 0.2
19/05:30pm 9.3 4.9 6.4 82 1.4 SW 19 44 10 24 1013.9 - 0.2
19/05:00pm 8.7 1.9 6.8 88 0.9 SW 32 52 17 28 1013.8 1013.8 0.2
19/04:39pm 9.1 3.1 7.1 87 1.0 SSW 28 61 15 33 1013.8 - 0.2
19/04:30pm 9.7 4.2 6.1 78 1.7 SW 24 52 13 28 1013.7 - 0.2
19/04:00pm 10.1 5.3 5.7 74 2.0 WSW 20 43 11 23 1013.7 1013.7 0.2
19/03:32pm 10.1 4.1 7.2 82 1.4 SSW 28 52 15 28 1013.6 - 0.2
19/03:30pm 9.9 4.2 6.8 81 1.5 SW 26 52 14 28 1013.6 - 0.2
19/03:01pm 9.2 2.9 5.8 79 1.6 SW 28 56 15 30 1013.6 - 0.2
19/03:00pm 9.3 3.4 5.9 79 1.6 SW 26 54 14 29 1013.6 1013.6 0.2
19/02:50pm 9.7 3.4 5.7 76 1.9 SW 28 63 15 34 1013.6 - 0.2
19/02:30pm 10.5 4.8 4.9 68 2.6 SW 24 48 13 26 1013.5 - 0.2
19/02:00pm 10.5 4.7 4.6 67 2.7 SW 24 46 13 25 1013.6 1013.6 0.2
19/01:34pm 10.8 1.0 3.1 59 3.4 SW 44 65 24 35 1013.5 - 0.2
19/01:30pm 11.3 5.9 4.3 62 3.2 SW 22 56 12 30 1013.6 - 0.2
19/01:00pm 10.6 3.8 3.2 60 3.3 SW 28 54 15 29 1013.6 1013.6 0.0
19/12:54pm 10.4 3.6 3.0 60 3.2 SW 28 54 15 29 1013.7 - 0.0
19/12:30pm 10.7 5.1 3.5 61 3.2 WSW 22 50 12 27 1013.9 - 0.0
19/12:00pm 10.6 5.7 5.2 69 2.5 SW 20 56 11 30 1014.0 1014.0 0.0
19/11:30am 10.6 3.2 4.9 68 2.6 SW 33 57 18 31 1014.5 - 0.0
19/11:17am 10.4 3.9 4.5 67 2.7 SW 28 63 15 34 1014.2 - 0.0
19/11:00am 10.2 3.9 3.7 64 2.9 SW 26 57 14 31 1014.2 1014.2 0.0
19/10:30am 10.7 5.4 5.0 68 2.6 WSW 22 54 12 29 1014.0 - 0.0
19/10:01am 10.4 3.8 4.3 66 2.8 SW 28 59 15 32 1013.9 - 0.0
19/10:00am 10.4 4.1 3.9 64 2.9 SW 26 59 14 32 1013.9 1013.9 0.0
19/09:39am 10.3 3.8 4.7 68 2.6 SW 28 59 15 32 1013.8 - 0.0
19/09:30am 10.6 5.4 5.4 70 2.4 SW 22 54 12 29 1013.9 - 0.0
19/09:00am 9.8 2.2 5.6 75 1.9 SW 35 65 19 35 1013.7 1013.7 9.4
19/08:30am 9.5 0.6 4.9 73 2.1 SSW 41 69 22 37 1013.6 - 9.4
19/08:27am 9.5 2.3 5.7 77 1.8 SSW 33 69 18 37 1013.6 - 9.4
19/08:24am 9.6 6.4 6.7 82 1.4 S 13 30 7 16 1013.6 - 9.4
19/08:00am 9.6 1.4 5.0 73 2.1 SSW 37 65 20 35 1013.4 1013.4 9.4
19/07:30am 9.8 2.0 4.8 71 2.3 SSW 35 67 19 36 1012.8 - 9.4
19/07:00am 9.0 0.5 5.2 77 1.7 SW 39 72 21 39 1012.6 1012.6 9.4
19/06:43am 9.8 -1.6 5.0 72 2.2 SW 54 72 29 39 1012.3 - 9.4
19/06:42am 9.7 -2.1 4.7 71 2.3 SW 56 72 30 39 1012.3 - 9.4
19/06:30am 9.6 2.3 4.6 71 2.3 SSW 32 56 17 30 1012.2 - 9.4
19/06:06am 9.6 3.4 6.0 78 1.7 SW 28 70 15 38 1012.0 - 9.4
19/06:00am 9.3 3.3 5.3 76 1.8 SW 26 57 14 31 1012.1 1012.0 9.4
19/05:30am 9.6 0.2 5.2 74 2.0 SW 44 82 24 44 1011.6 - 9.4
19/05:00am 9.8 0.4 5.2 73 2.1 SSW 44 80 24 43 1011.6 1011.5 9.4
19/04:30am 9.7 -1.3 3.2 64 2.8 SW 50 80 27 43 1011.2 - 9.4
19/04:00am 9.7 -1.3 5.1 73 2.1 SSW 52 80 28 43 1011.2 1011.1 9.4
19/03:59am 9.6 -1.8 4.8 72 2.2 SW 54 80 29 43 1011.1 - 9.4
19/03:30am 9.2 2.9 5.6 78 1.7 SW 28 61 15 33 1011.2 - 9.4
19/03:24am 9.1 2.8 5.8 80 1.5 SW 28 63 15 34 1011.1 - 9.4
19/03:20am 9.1 3.3 6.2 82 1.4 SW 26 63 14 34 1011.0 - 9.4
19/03:14am 8.7 -2.9 6.0 83 1.2 SW 56 78 30 42 1011.1 - 9.4
19/03:01am 9.8 3.2 4.4 69 2.4 SW 28 63 15 34 1011.0 - 9.4
19/03:00am 9.8 3.6 4.4 69 2.4 SW 26 63 14 34 1011.0 1010.9 9.4
19/02:30am 9.5 2.4 5.5 76 1.8 SW 32 65 17 35 1011.1 - 9.4
19/02:00am 9.8 2.9 4.6 70 2.4 SW 30 74 16 40 1011.0 1010.9 9.4
19/01:30am 9.9 2.4 4.7 70 2.4 SW 33 67 18 36 1010.8 - 9.4
19/01:00am 9.9 1.4 5.3 73 2.1 SW 39 78 21 42 1010.8 1010.7 9.4
19/12:30am 9.8 0.7 3.8 66 2.7 SW 41 82 22 44 1010.7 - 9.4
19/12:00am 9.7 -1.5 6.1 78 1.7 SW 54 76 29 41 1010.8 1010.7 9.4
 
Date/Time
EST
Temp
°C
App
Temp
°C
Dew
Point
Rel
Hum
%
Delta-T
°C
Wind Press
QNH
hPa
Press
MSL
hPa
Rain
since 9 am
mm
Dir
 
Spd
km/h
Gust
km/h
Spd
kts
Gust
kts
18/11:30pm 9.6 2.5 5.4 75 1.9 SW 32 63 17 34 1010.9 - 9.4
18/11:00pm 9.7 2.8 4.7 71 2.3 SW 30 65 16 35 1010.6 1010.5 9.2
18/10:30pm 9.9 2.4 3.6 65 2.8 WSW 32 76 17 41 1010.5 - 9.2
18/10:00pm 8.9 2.0 7.4 90 0.7 WSW 33 70 18 38 1010.8 1010.7 9.2
18/09:30pm 9.7 3.5 7.8 88 0.9 SW 30 67 16 36 1010.6 - 9.2
18/09:10pm 8.7 1.9 7.5 92 0.6 SW 33 54 18 29 1010.6 - 9.2
18/09:09pm 8.6 1.3 7.2 91 0.7 SW 35 54 19 29 1010.5 - 9.2
18/09:06pm 8.4 -2.9 7.2 92 0.6 SW 56 83 30 45 1010.4 - 9.2
18/09:03pm 8.9 2.7 7.8 93 0.5 SW 30 82 16 44 1010.5 - 9.0
18/09:00pm 9.2 4.1 7.8 91 0.7 WSW 24 61 13 33 1010.4 1010.3 9.0
18/08:35pm 8.8 2.9 7.6 92 0.6 SW 28 72 15 39 1009.9 - 8.8
18/08:30pm 9.1 4.4 7.9 92 0.6 W 22 46 12 25 1009.9 - 8.8
18/08:12pm 8.6 2.8 8.0 96 0.3 WSW 28 63 15 34 1010.2 - 8.4
18/08:00pm 8.8 3.8 8.0 95 0.4 WSW 24 72 13 39 1009.7 1009.7 7.4
18/07:30pm 8.7 2.1 7.6 93 0.5 SW 32 72 17 39 1009.7 - 6.0
18/07:03pm 9.1 3.1 7.1 87 1.0 WSW 28 74 15 40 1009.2 - 4.4
18/07:00pm 10.1 5.1 7.9 86 1.1 WSW 24 59 13 32 1009.2 1009.2 3.8
18/06:34pm 9.1 2.5 7.9 92 0.6 SW 32 63 17 34 1009.1 - 3.8
18/06:30pm 8.9 -2.3 7.4 90 0.7 SW 56 89 30 48 1008.8 - 3.8
18/06:00pm 9.6 2.6 6.9 83 1.3 WSW 33 83 18 45 1008.6 1008.5 3.4
18/05:30pm 10.4 3.3 6.2 75 2.0 SW 33 70 18 38 1008.5 - 3.4
18/05:17pm 10.9 -0.1 6.6 75 2.1 SSW 54 89 29 48 1007.8 - 3.4
18/05:00pm 11.2 3.9 5.5 68 2.7 WSW 33 74 18 40 1007.7 1007.6 3.4
18/04:30pm 11.2 4.2 5.9 70 2.5 WSW 32 76 17 41 1007.2 - 3.4
18/04:03pm 11.2 3.5 6.9 75 2.1 WSW 37 70 20 38 1006.9 - 3.4
18/04:00pm 11.2 2.4 7.1 76 2.0 SW 43 67 23 36 1006.8 1006.7 3.4
18/03:30pm 11.1 4.2 7.4 78 1.8 WSW 33 67 18 36 1006.5 - 3.4
18/03:00pm 11.3 5.3 7.2 76 2.0 WSW 28 57 15 31 1006.6 1006.5 3.4
18/02:45pm 11.1 5.2 7.4 78 1.8 WSW 28 61 15 33 1006.7 - 3.4
18/02:30pm 11.2 5.5 6.7 74 2.2 WSW 26 59 14 32 1006.7 - 3.4
18/02:07pm 10.9 4.7 7.8 81 1.5 WSW 30 50 16 27 1006.9 - 3.4
18/02:00pm 10.9 8.4 8.1 83 1.4 NW 11 30 6 16 1006.9 1006.8 3.4
18/01:30pm 10.5 8.0 8.1 85 1.2 WNW 11 30 6 16 1007.0 - 3.4
18/01:00pm 10.8 7.5 8.2 84 1.3 W 15 43 8 23 1006.8 1006.7 3.0
18/12:30pm 10.3 6.2 8.6 89 0.8 WSW 20 35 11 19 1006.3 - 3.0
18/12:00pm 10.5 7.2 8.1 85 1.2 W 15 37 8 20 1007.3 1007.2 2.6
18/11:30am 10.5 6.6 8.8 89 0.8 W 19 46 10 25 1007.7 - 2.4
18/11:00am 9.5 5.1 8.9 96 0.3 WSW 22 59 12 32 1007.8 1007.7 1.8
18/10:48am 10.7 4.4 7.6 81 1.5 SW 30 72 16 39 1007.6 - 0.4
18/10:30am 15.3 13.6 11.3 77 2.2 NW 11 19 6 10 1007.4 - 0.0
18/10:00am 16.0 13.0 11.8 76 2.3 N 19 30 10 16 1007.2 1007.1 0.0
18/09:30am 15.5 11.4 11.3 76 2.3 N 24 35 13 19 1007.3 - 0.0
18/09:00am 15.3 11.6 10.3 72 2.7 N 20 30 11 16 1007.8 1007.7 0.0
18/08:30am 14.6 10.3 10.6 77 2.1 N 24 30 13 16 1008.2 - 0.0
18/08:00am 13.3 8.4 11.2 87 1.1 N 28 33 15 18 1008.3 1008.2 0.0
18/07:30am 13.0 6.9 10.5 85 1.3 N 33 43 18 23 1008.6 - 0.0
18/07:00am 13.0 8.3 9.4 79 1.9 N 24 30 13 16 1008.8 1008.7 0.0
18/06:30am 13.1 9.3 9.9 81 1.7 N 20 32 11 17 1009.1 - 0.0
18/06:00am 13.5 10.0 8.6 72 2.5 NNW 17 26 9 14 1009.6 1009.6 0.0
18/05:30am 14.3 8.8 7.4 63 3.4 NNW 26 37 14 20 1009.8 - 0.0
18/05:00am 14.2 7.9 7.3 63 3.4 NNW 30 41 16 22 1010.2 1010.1 0.0
18/04:30am 14.6 9.3 6.7 59 3.9 NNW 24 41 13 22 1010.5 - 0.0
18/04:00am 15.2 8.2 6.2 55 4.4 NW 32 43 17 23 1010.7 1010.6 0.0
18/03:30am 15.2 8.2 6.2 55 4.4 NW 32 39 17 21 1011.0 - 0.0
18/03:00am 15.4 8.6 6.9 57 4.2 NW 32 44 17 24 1011.5 1011.4 0.0
18/02:30am 15.2 8.5 7.5 60 3.9 NW 32 44 17 24 1012.0 - 0.0
18/02:00am 14.9 8.7 7.9 63 3.5 NW 30 41 16 22 1012.3 1012.2 0.0
18/01:30am 14.3 10.7 8.3 67 3.0 N 17 33 9 18 1012.9 - 0.0
18/01:00am 14.1 9.5 8.1 67 3.0 NNW 22 32 12 17 1013.3 1013.3 0.0
18/12:30am 13.9 10.0 8.7 71 2.7 N 19 30 10 16 1013.7 - 0.0
18/12:00am 13.9 10.0 8.7 71 2.7 N 19 32 10 17 1014.1 1014.1 0.0
 
Date/Time
EST
Temp
°C
App
Temp
°C
Dew
Point
Rel
Hum
%
Delta-T
°C
Wind Press
QNH
hPa
Press
MSL
hPa
Rain
since 9 am
mm
Dir
 
Spd
km/h
Gust
km/h
Spd
kts
Gust
kts
17/11:30pm 14.2 9.2 8.2 67 3.0 NNW 24 37 13 20 1014.6 - 0.0
17/11:00pm 13.9 9.5 8.9 72 2.6 N 22 39 12 21 1014.9 1014.8 0.0
17/10:30pm 13.8 9.2 11.1 84 1.4 N 26 33 14 18 1015.4 - 0.0
17/10:00pm 13.8 9.0 11.8 88 1.1 N 28 35 15 19 1015.8 1015.7 0.0
17/09:30pm 14.0 8.4 12.2 89 1.0 N 33 41 18 22 1016.1 - 0.0
17/09:00pm 14.0 8.4 12.2 89 1.0 N 33 41 18 22 1016.3 1016.3 0.0
17/08:30pm 14.0 8.5 12.4 90 0.9 N 33 43 18 23 1016.6 - 0.0
17/08:00pm 14.1 8.3 12.8 92 0.7 N 35 43 19 23 1016.8 1016.8 0.0
17/07:30pm 14.3 9.1 12.7 90 0.9 N 32 43 17 23 1017.0 - 0.0
17/07:00pm 14.2 8.7 12.6 90 0.9 N 33 44 18 24 1017.2 1017.2 0.0
17/06:30pm 14.3 9.3 12.2 87 1.2 N 30 43 16 23 1017.2 - 0.0
17/06:00pm 14.3 8.9 12.2 87 1.1 NNE 32 44 17 24 1017.2 1017.2 0.0
17/05:30pm 14.2 9.1 11.9 86 1.3 N 30 41 16 22 1017.3 - 0.0
17/05:00pm 14.4 8.7 11.2 81 1.7 N 32 43 17 23 1017.2 1017.2 0.0
17/04:30pm 14.6 9.4 11.7 83 1.6 NNE 30 41 16 22 1017.4 - 0.0
17/04:00pm 15.0 10.1 11.4 79 1.9 N 28 39 15 21 1017.6 1017.6 0.0
17/03:30pm 15.3 10.8 11.3 77 2.2 NNE 26 35 14 19 1018.0 - 0.0
17/03:00pm 16.0 11.9 11.4 74 2.5 NNE 24 37 13 20 1018.3 1018.3 0.0
17/02:30pm 16.5 11.9 8.2 58 4.3 N 22 32 12 17 1018.4 - 0.0
17/02:00pm 16.8 12.6 9.7 63 3.8 N 22 32 12 17 1018.7 1018.7 0.0
17/01:30pm 16.4 11.2 8.9 61 3.9 N 26 37 14 20 1019.1 - 0.0
17/01:00pm 16.3 11.0 9.7 65 3.5 N 28 33 15 18 1019.5 1019.5 0.0
17/12:30pm 16.3 12.3 10.6 69 3.1 N 22 30 12 16 1019.9 - 0.0
17/12:00pm 16.1 12.7 11.1 72 2.7 N 20 26 11 14 1020.3 1020.3 0.0
17/11:30am 16.1 12.5 10.6 70 3.0 N 20 30 11 16 1020.7 - 0.0
17/11:00am 16.4 13.0 11.1 71 2.9 N 20 24 11 13 1020.8 1020.8 0.0
17/10:30am 16.2 12.8 11.2 72 2.7 N 20 26 11 14 1020.8 - 0.0
17/10:00am 15.8 12.5 10.8 72 2.7 N 19 24 10 13 1020.8 1020.8 0.0
17/09:30am 15.1 11.8 11.7 80 1.9 N 20 28 11 15 1021.0 - 0.0
17/09:00am 13.7 9.7 11.8 88 1.0 N 24 28 13 15 1021.0 1021.0 0.2
17/08:30am 14.3 10.2 11.5 83 1.5 N 24 30 13 16 1021.1 - 0.2
17/08:00am 13.8 10.0 11.0 83 1.5 NNE 22 28 12 15 1020.9 1020.9 0.2
17/07:30am 13.3 8.9 10.5 83 1.5 N 24 32 13 17 1020.7 - 0.2
17/07:00am 12.8 9.1 10.2 84 1.4 N 20 28 11 15 1020.6 1020.6 0.2
17/06:30am 12.5 10.1 11.4 93 0.6 N 15 24 8 13 1020.5 - 0.2
17/06:00am 12.5 9.7 11.4 93 0.6 N 17 26 9 14 1020.4 1020.4 0.2
17/05:30am 12.6 9.8 11.3 92 0.7 N 17 24 9 13 1020.4 - 0.2
17/05:00am 12.6 9.0 11.8 95 0.4 N 22 30 12 16 1020.4 1020.4 0.2
17/04:30am 12.7 9.1 11.9 95 0.4 N 22 28 12 15 1020.3 - 0.2
17/04:00am 12.7 9.1 11.9 95 0.4 N 22 30 12 16 1020.1 1020.1 0.2
17/03:30am 12.8 8.5 11.9 94 0.5 N 26 33 14 18 1020.1 - 0.2
17/03:00am 12.9 8.1 11.8 93 0.6 N 28 37 15 20 1020.1 1020.1 0.2
17/02:30am 13.0 8.4 12.4 96 0.3 N 28 35 15 19 1020.1 - 0.2
17/02:00am 13.0 8.0 12.2 95 0.4 N 30 37 16 20 1020.1 1020.1 0.2
17/01:30am 13.2 8.2 12.1 93 0.6 N 30 37 16 20 1020.5 - 0.2
17/01:00am 13.2 7.7 11.8 91 0.8 N 32 39 17 21 1020.5 1020.5 0.2
17/12:30am 13.4 8.3 12.0 91 0.8 N 30 39 16 21 1020.6 - 0.2
17/12:00am 13.3 8.0 11.2 87 1.1 N 30 41 16 22 1020.7 1020.7 0.2
 
Date/Time
EST
Temp
°C
App
Temp
°C
Dew
Point
Rel
Hum
%
Delta-T
°C
Wind Press
QNH
hPa
Press
MSL
hPa
Rain
since 9 am
mm
Dir
 
Spd
km/h
Gust
km/h
Spd
kts
Gust
kts
16/11:30pm 13.4 7.7 11.3 87 1.1 N 32 39 17 21 1020.9 - 0.2
16/11:00pm 13.4 8.1 11.3 87 1.1 NNE 30 44 16 24 1021.0 1021.0 0.2

Other Formats:

Comma delimited format used in spreadsheet applications
http://www.bom.gov.au/fwo/IDT60801/IDT60801.95986.axf

JavaScript Object Notation format (JSON) in row-major order
http://www.bom.gov.au/fwo/IDT60801/IDT60801.95986.json